sensor_id;sensor_type;location;lat;lon;timestamp;pressure;altitude;pressure_sealevel;temperature;humidity
42771;BME280;28426;42.872;25.314;2023-02-18T00:01:23;97619.34;;;-0.15;80.25
42771;BME280;28426;42.872;25.314;2023-02-18T00:03:54;97612.31;;;-0.14;79.77
42771;BME280;28426;42.872;25.314;2023-02-18T00:06:29;97607.16;;;-0.16;79.71
42771;BME280;28426;42.872;25.314;2023-02-18T00:09:00;97607.16;;;-0.16;79.22
42771;BME280;28426;42.872;25.314;2023-02-18T00:11:33;97608.03;;;-0.15;79.21
42771;BME280;28426;42.872;25.314;2023-02-18T00:14:06;97598.34;;;-0.15;79.38
42771;BME280;28426;42.872;25.314;2023-02-18T00:16:38;97594.81;;;-0.14;79.09
42771;BME280;28426;42.872;25.314;2023-02-18T00:19:11;97598.16;;;-0.11;78.98
42771;BME280;28426;42.872;25.314;2023-02-18T00:21:46;97594.25;;;-0.19;81.72
42771;BME280;28426;42.872;25.314;2023-02-18T00:24:16;97596.34;;;-0.24;81.55
42771;BME280;28426;42.872;25.314;2023-02-18T00:26:50;97587.97;;;-0.42;81.56
42771;BME280;28426;42.872;25.314;2023-02-18T00:29:21;97589.16;;;-0.74;77.77
42771;BME280;28426;42.872;25.314;2023-02-18T00:31:51;97576.75;;;-1.25;75.33
42771;BME280;28426;42.872;25.314;2023-02-18T00:34:22;97587.44;;;-1.71;75.50
42771;BME280;28426;42.872;25.314;2023-02-18T00:36:56;97581.69;;;-2.19;76.27
42771;BME280;28426;42.872;25.314;2023-02-18T00:39:27;97571.72;;;-2.58;78.14
42771;BME280;28426;42.872;25.314;2023-02-18T00:41:58;97572.25;;;-2.82;79.22
42771;BME280;28426;42.872;25.314;2023-02-18T00:44:29;97573.41;;;-3.02;80.45
42771;BME280;28426;42.872;25.314;2023-02-18T00:46:59;97572.25;;;-3.12;81.42
42771;BME280;28426;42.872;25.314;2023-02-18T00:49:30;97574.94;;;-3.14;82.42
42771;BME280;28426;42.872;25.314;2023-02-18T00:52:06;97573.25;;;-3.15;84.12
42771;BME280;28426;42.872;25.314;2023-02-18T00:54:40;97548.31;;;-3.05;89.96
42771;BME280;28426;42.872;25.314;2023-02-18T00:57:11;97561.66;;;-2.64;89.76
42771;BME280;28426;42.872;25.314;2023-02-18T00:59:42;97554.38;;;-2.59;84.44
42771;BME280;28426;42.872;25.314;2023-02-18T01:02:12;97553.91;;;-2.66;83.38
42771;BME280;28426;42.872;25.314;2023-02-18T01:04:43;97541.66;;;-2.80;84.85
42771;BME280;28426;42.872;25.314;2023-02-18T01:07:17;97546.88;;;-2.80;86.16
42771;BME280;28426;42.872;25.314;2023-02-18T01:09:47;97542.41;;;-2.78;87.39
42771;BME280;28426;42.872;25.314;2023-02-18T01:12:18;97539.41;;;-2.71;88.41
42771;BME280;28426;42.872;25.314;2023-02-18T01:14:49;97533.94;;;-2.67;89.04
42771;BME280;28426;42.872;25.314;2023-02-18T01:17:19;97539.34;;;-2.55;89.18
42771;BME280;28426;42.872;25.314;2023-02-18T01:19:50;97529.47;;;-2.50;89.14
42771;BME280;28426;42.872;25.314;2023-02-18T01:22:23;97528.34;;;-2.46;89.03
42771;BME280;28426;42.872;25.314;2023-02-18T01:24:55;97528.06;;;-2.41;88.72
42771;BME280;28426;42.872;25.314;2023-02-18T01:27:26;97524.34;;;-2.37;91.54
42771;BME280;28426;42.872;25.314;2023-02-18T01:29:57;97520.31;;;-2.28;90.22
42771;BME280;28426;42.872;25.314;2023-02-18T01:32:29;97518.75;;;-2.16;90.05
42771;BME280;28426;42.872;25.314;2023-02-18T01:35:00;97517.97;;;-2.04;89.36
42771;BME280;28426;42.872;25.314;2023-02-18T01:37:35;97518.69;;;-1.87;88.78
42771;BME280;28426;42.872;25.314;2023-02-18T01:40:08;97517.94;;;-1.75;88.43
42771;BME280;28426;42.872;25.314;2023-02-18T01:42:40;97516.31;;;-1.63;87.30
42771;BME280;28426;42.872;25.314;2023-02-18T01:45:39;97523.28;;;-1.49;87.04
42771;BME280;28426;42.872;25.314;2023-02-18T01:48:17;97516.50;;;-1.38;86.14
42771;BME280;28426;42.872;25.314;2023-02-18T01:50:52;97517.66;;;-1.29;85.22
42771;BME280;28426;42.872;25.314;2023-02-18T01:53:28;97498.09;;;-1.37;84.48
42771;BME280;28426;42.872;25.314;2023-02-18T01:56:03;97512.88;;;-1.23;84.02
42771;BME280;28426;42.872;25.314;2023-02-18T01:58:36;97523.59;;;-1.13;83.82
42771;BME280;28426;42.872;25.314;2023-02-18T02:01:08;97500.53;;;-1.21;83.50
42771;BME280;28426;42.872;25.314;2023-02-18T02:03:40;97527.28;;;-1.02;83.22
42771;BME280;28426;42.872;25.314;2023-02-18T02:06:16;97526.13;;;-0.98;82.95
42771;BME280;28426;42.872;25.314;2023-02-18T02:08:54;97531.28;;;-0.97;82.62
42771;BME280;28426;42.872;25.314;2023-02-18T02:11:38;97529.28;;;-0.93;82.49
42771;BME280;28426;42.872;25.314;2023-02-18T02:14:19;97523.00;;;-0.90;82.03
42771;BME280;28426;42.872;25.314;2023-02-18T02:17:01;97521.13;;;-0.88;81.85
42771;BME280;28426;42.872;25.314;2023-02-18T02:23:29;97514.75;;;-0.84;81.73
42771;BME280;28426;42.872;25.314;2023-02-18T02:26:32;97501.84;;;-0.87;83.88
42771;BME280;28426;42.872;25.314;2023-02-18T02:32:25;97495.94;;;-1.04;85.16
42771;BME280;28426;42.872;25.314;2023-02-18T02:35:05;97490.50;;;-1.01;85.03
42771;BME280;28426;42.872;25.314;2023-02-18T02:37:42;97490.91;;;-1.07;85.63
42771;BME280;28426;42.872;25.314;2023-02-18T02:40:22;97474.53;;;-1.24;84.97
42771;BME280;28426;42.872;25.314;2023-02-18T02:43:05;97495.50;;;-1.24;83.92
42771;BME280;28426;42.872;25.314;2023-02-18T02:45:49;97497.41;;;-1.40;83.92
42771;BME280;28426;42.872;25.314;2023-02-18T02:48:28;97499.38;;;-1.57;84.73
42771;BME280;28426;42.872;25.314;2023-02-18T02:51:09;97492.44;;;-1.58;85.95
42771;BME280;28426;42.872;25.314;2023-02-18T02:53:41;97497.03;;;-1.62;86.85
42771;BME280;28426;42.872;25.314;2023-02-18T02:56:13;97495.56;;;-1.66;85.76
42771;BME280;28426;42.872;25.314;2023-02-18T02:59:00;97481.28;;;-1.75;85.41
42771;BME280;28426;42.872;25.314;2023-02-18T03:01:47;97483.91;;;-1.75;88.80
42771;BME280;28426;42.872;25.314;2023-02-18T03:04:49;97484.44;;;-1.69;88.53
42771;BME280;28426;42.872;25.314;2023-02-18T03:07:42;97487.59;;;-1.64;88.47
42771;BME280;28426;42.872;25.314;2023-02-18T03:10:38;97496.44;;;-1.52;88.24
42771;BME280;28426;42.872;25.314;2023-02-18T03:13:20;97494.06;;;-1.42;87.14
42771;BME280;28426;42.872;25.314;2023-02-18T03:15:57;97495.94;;;-1.45;86.20
42771;BME280;28426;42.872;25.314;2023-02-18T03:18:33;97499.59;;;-1.47;85.90
42771;BME280;28426;42.872;25.314;2023-02-18T03:21:09;97508.91;;;-1.56;84.31
42771;BME280;28426;42.872;25.314;2023-02-18T03:23:49;97518.75;;;-1.74;82.49
42771;BME280;28426;42.872;25.314;2023-02-18T03:26:23;97522.44;;;-1.91;84.85
42771;BME280;28426;42.872;25.314;2023-02-18T03:28:59;97522.28;;;-2.03;85.86
42771;BME280;28426;42.872;25.314;2023-02-18T03:31:32;97517.78;;;-2.01;87.34
42771;BME280;28426;42.872;25.314;2023-02-18T03:34:08;97495.00;;;-2.13;86.15
42771;BME280;28426;42.872;25.314;2023-02-18T03:36:42;97516.94;;;-2.01;87.06
42771;BME280;28426;42.872;25.314;2023-02-18T03:39:18;97515.44;;;-1.91;88.68
42771;BME280;28426;42.872;25.314;2023-02-18T03:41:49;97525.41;;;-1.83;87.63
42771;BME280;28426;42.872;25.314;2023-02-18T03:44:20;97526.72;;;-1.76;88.79
42771;BME280;28426;42.872;25.314;2023-02-18T03:46:51;97524.78;;;-1.59;88.90
42771;BME280;28426;42.872;25.314;2023-02-18T03:49:22;97527.47;;;-1.46;87.26
42771;BME280;28426;42.872;25.314;2023-02-18T03:51:52;97529.41;;;-1.35;86.18
42771;BME280;28426;42.872;25.314;2023-02-18T03:54:25;97528.47;;;-1.34;84.80
42771;BME280;28426;42.872;25.314;2023-02-18T03:56:56;97517.63;;;-1.42;84.17
42771;BME280;28426;42.872;25.314;2023-02-18T03:59:27;97520.66;;;-1.49;84.70
42771;BME280;28426;42.872;25.314;2023-02-18T04:01:57;97520.78;;;-1.65;84.15
42771;BME280;28426;42.872;25.314;2023-02-18T04:04:29;97496.28;;;-1.91;88.08
42771;BME280;28426;42.872;25.314;2023-02-18T04:06:59;97514.56;;;-1.77;87.79
42771;BME280;28426;42.872;25.314;2023-02-18T04:09:32;97488.97;;;-1.86;85.77
42771;BME280;28426;42.872;25.314;2023-02-18T04:12:03;97504.75;;;-1.73;85.04
42771;BME280;28426;42.872;25.314;2023-02-18T04:14:34;97491.75;;;-1.75;85.73
42771;BME280;28426;42.872;25.314;2023-02-18T04:17:05;97481.28;;;-1.75;88.70
42771;BME280;28426;42.872;25.314;2023-02-18T04:19:36;97458.91;;;-1.66;88.80
42771;BME280;28426;42.872;25.314;2023-02-18T04:22:07;97450.97;;;-1.64;86.68
42771;BME280;28426;42.872;25.314;2023-02-18T04:24:40;97471.13;;;-1.52;84.75
42771;BME280;28426;42.872;25.314;2023-02-18T04:27:11;97469.53;;;-1.54;85.00
42771;BME280;28426;42.872;25.314;2023-02-18T04:29:42;97462.50;;;-1.54;88.27
42771;BME280;28426;42.872;25.314;2023-02-18T04:32:12;97452.38;;;-1.46;88.22
42771;BME280;28426;42.872;25.314;2023-02-18T04:34:43;97460.56;;;-1.37;85.67
42771;BME280;28426;42.872;25.314;2023-02-18T04:37:14;97452.72;;;-1.37;83.29
42771;BME280;28426;42.872;25.314;2023-02-18T04:39:47;97449.75;;;-1.46;83.47
42771;BME280;28426;42.872;25.314;2023-02-18T04:42:18;97456.28;;;-1.38;87.62
42771;BME280;28426;42.872;25.314;2023-02-18T04:44:48;97451.50;;;-1.32;86.85
42771;BME280;28426;42.872;25.314;2023-02-18T04:47:19;97452.53;;;-1.21;83.72
42771;BME280;28426;42.872;25.314;2023-02-18T04:49:50;97449.31;;;-1.25;83.03
42771;BME280;28426;42.872;25.314;2023-02-18T04:52:20;97446.63;;;-1.38;83.29
42771;BME280;28426;42.872;25.314;2023-02-18T04:54:53;97438.06;;;-1.67;83.70
42771;BME280;28426;42.872;25.314;2023-02-18T04:57:24;97456.56;;;-1.56;86.49
42771;BME280;28426;42.872;25.314;2023-02-18T04:59:55;97448.69;;;-1.56;86.04
42771;BME280;28426;42.872;25.314;2023-02-18T05:02:25;97449.75;;;-1.46;86.32
42771;BME280;28426;42.872;25.314;2023-02-18T05:04:56;97447.50;;;-1.37;85.54
42771;BME280;28426;42.872;25.314;2023-02-18T05:07:28;97446.25;;;-1.32;84.55
42771;BME280;28426;42.872;25.314;2023-02-18T05:10:02;97439.44;;;-1.34;83.16
42771;BME280;28426;42.872;25.314;2023-02-18T05:12:33;97450.44;;;-1.42;82.88
42771;BME280;28426;42.872;25.314;2023-02-18T05:15:04;97423.94;;;-1.65;84.03
42771;BME280;28426;42.872;25.314;2023-02-18T05:17:35;97443.66;;;-1.59;85.02
42771;BME280;28426;42.872;25.314;2023-02-18T05:20:07;97437.47;;;-1.58;87.39
42771;BME280;28426;42.872;25.314;2023-02-18T05:22:38;97433.84;;;-1.55;87.61
42771;BME280;28426;42.872;25.314;2023-02-18T05:25:12;97457.53;;;-1.44;84.47
42771;BME280;28426;42.872;25.314;2023-02-18T05:27:42;97440.31;;;-1.61;83.32
42771;BME280;28426;42.872;25.314;2023-02-18T05:30:13;97455.56;;;-1.68;84.53
42771;BME280;28426;42.872;25.314;2023-02-18T05:32:44;97450.63;;;-1.73;88.06
42771;BME280;28426;42.872;25.314;2023-02-18T05:35:15;97449.31;;;-1.65;87.72
42771;BME280;28426;42.872;25.314;2023-02-18T05:37:46;97449.66;;;-1.57;85.35
42771;BME280;28426;42.872;25.314;2023-02-18T05:40:19;97448.28;;;-1.50;84.65
42771;BME280;28426;42.872;25.314;2023-02-18T05:42:50;97426.19;;;-1.59;84.90
42771;BME280;28426;42.872;25.314;2023-02-18T05:45:20;97435.03;;;-1.34;87.92
42771;BME280;28426;42.872;25.314;2023-02-18T05:47:51;97446.06;;;-1.15;87.21
42771;BME280;28426;42.872;25.314;2023-02-18T05:50:22;97446.50;;;-0.96;84.41
42771;BME280;28426;42.872;25.314;2023-02-18T05:52:52;97441.69;;;-0.89;82.47
42771;BME280;28426;42.872;25.314;2023-02-18T05:55:26;97442.97;;;-0.95;82.66
42771;BME280;28426;42.872;25.314;2023-02-18T05:57:56;97437.16;;;-1.00;83.70
42771;BME280;28426;42.872;25.314;2023-02-18T06:00:27;97431.09;;;-0.87;85.66
42771;BME280;28426;42.872;25.314;2023-02-18T06:02:58;97433.59;;;-0.73;83.55
42771;BME280;28426;42.872;25.314;2023-02-18T06:05:29;97410.56;;;-0.68;81.69
42771;BME280;28426;42.872;25.314;2023-02-18T06:07:59;97417.25;;;-0.63;81.77
42771;BME280;28426;42.872;25.314;2023-02-18T06:10:32;97411.28;;;-0.66;82.19
42771;BME280;28426;42.872;25.314;2023-02-18T06:13:03;97413.78;;;-0.51;84.45
42771;BME280;28426;42.872;25.314;2023-02-18T06:15:34;97413.75;;;-0.38;82.60
42771;BME280;28426;42.872;25.314;2023-02-18T06:18:05;97406.50;;;-0.34;80.78
42771;BME280;28426;42.872;25.314;2023-02-18T06:20:35;97398.84;;;-0.37;80.56
42771;BME280;28426;42.872;25.314;2023-02-18T06:23:06;97393.84;;;-0.41;81.29
42771;BME280;28426;42.872;25.314;2023-02-18T06:25:40;97392.25;;;-0.43;82.33
42771;BME280;28426;42.872;25.314;2023-02-18T06:28:11;97386.88;;;-0.29;83.69
42771;BME280;28426;42.872;25.314;2023-02-18T06:30:43;97393.03;;;-0.17;82.00
42771;BME280;28426;42.872;25.314;2023-02-18T06:33:13;97384.66;;;-0.22;80.33
42771;BME280;28426;42.872;25.314;2023-02-18T06:35:52;97383.91;;;-0.24;81.15
42771;BME280;28426;42.872;25.314;2023-02-18T06:38:22;97380.91;;;-0.31;82.80
42771;BME280;28426;42.872;25.314;2023-02-18T06:40:55;97379.81;;;-0.15;84.00
42771;BME280;28426;42.872;25.314;2023-02-18T06:43:26;97380.91;;;-0.06;82.12
42771;BME280;28426;42.872;25.314;2023-02-18T06:45:57;97381.97;;;-0.09;80.80
42771;BME280;28426;42.872;25.314;2023-02-18T06:48:27;97386.63;;;-0.12;81.54
42771;BME280;28426;42.872;25.314;2023-02-18T06:50:58;97391.38;;;-0.18;82.09
42771;BME280;28426;42.872;25.314;2023-02-18T06:53:30;97396.38;;;-0.15;85.05
42771;BME280;28426;42.872;25.314;2023-02-18T06:56:04;97391.19;;;-0.03;83.80
42771;BME280;28426;42.872;25.314;2023-02-18T06:58:35;97390.97;;;0.00;81.31
42771;BME280;28426;42.872;25.314;2023-02-18T07:01:06;97387.84;;;-0.05;81.83
42771;BME280;28426;42.872;25.314;2023-02-18T07:03:37;97387.44;;;-0.12;82.33
42771;BME280;28426;42.872;25.314;2023-02-18T07:06:08;97392.69;;;-0.12;84.44
42771;BME280;28426;42.872;25.314;2023-02-18T07:08:38;97394.53;;;-0.01;84.56
42771;BME280;28426;42.872;25.314;2023-02-18T07:11:12;97411.53;;;0.06;82.99
42771;BME280;28426;42.872;25.314;2023-02-18T07:13:42;97403.75;;;0.05;82.45
42771;BME280;28426;42.872;25.314;2023-02-18T07:16:13;97405.31;;;0.07;86.44
42771;BME280;28426;42.872;25.314;2023-02-18T07:18:44;97392.25;;;0.19;85.35
42771;BME280;28426;42.872;25.314;2023-02-18T07:21:15;97389.78;;;0.29;83.30
42771;BME280;28426;42.872;25.314;2023-02-18T07:23:46;97382.00;;;0.27;81.92
42771;BME280;28426;42.872;25.314;2023-02-18T07:26:19;97388.47;;;0.23;82.37
42771;BME280;28426;42.872;25.314;2023-02-18T07:28:50;97403.09;;;0.14;83.71
42771;BME280;28426;42.872;25.314;2023-02-18T07:31:20;97409.50;;;0.10;85.05
42771;BME280;28426;42.872;25.314;2023-02-18T07:33:51;97404.94;;;0.25;86.64
42771;BME280;28426;42.872;25.314;2023-02-18T07:36:22;97399.97;;;0.45;84.11
42771;BME280;28426;42.872;25.314;2023-02-18T07:38:52;97407.69;;;0.59;83.03
42771;BME280;28426;42.872;25.314;2023-02-18T07:41:26;97395.06;;;0.64;84.20
42771;BME280;28426;42.872;25.314;2023-02-18T07:43:56;97397.44;;;0.68;85.15
42771;BME280;28426;42.872;25.314;2023-02-18T07:46:27;97408.34;;;0.86;85.06
42771;BME280;28426;42.872;25.314;2023-02-18T07:48:57;97403.97;;;1.09;85.37
42771;BME280;28426;42.872;25.314;2023-02-18T07:51:28;97404.47;;;1.37;84.90
42771;BME280;28426;42.872;25.314;2023-02-18T07:53:59;97396.06;;;1.66;81.89
42771;BME280;28426;42.872;25.314;2023-02-18T07:56:32;97406.94;;;1.85;79.29
42771;BME280;28426;42.872;25.314;2023-02-18T07:59:02;97411.13;;;1.99;78.84
42771;BME280;28426;42.872;25.314;2023-02-18T08:01:33;97411.53;;;2.15;78.16
42771;BME280;28426;42.872;25.314;2023-02-18T08:04:04;97409.28;;;2.43;80.21
42771;BME280;28426;42.872;25.314;2023-02-18T08:06:37;97400.38;;;2.77;79.00
42771;BME280;28426;42.872;25.314;2023-02-18T08:09:08;97399.56;;;2.98;76.74
42771;BME280;28426;42.872;25.314;2023-02-18T08:11:42;97397.91;;;3.07;76.77
42771;BME280;28426;42.872;25.314;2023-02-18T08:14:12;97393.47;;;3.29;79.34
42771;BME280;28426;42.872;25.314;2023-02-18T08:16:43;97395.41;;;3.58;76.14
42771;BME280;28426;42.872;25.314;2023-02-18T08:19:14;97388.63;;;3.75;73.04
42771;BME280;28426;42.872;25.314;2023-02-18T08:21:44;97394.81;;;3.95;74.03
42771;BME280;28426;42.872;25.314;2023-02-18T08:24:15;97387.47;;;4.18;72.72
42771;BME280;28426;42.872;25.314;2023-02-18T08:26:48;97385.13;;;4.45;69.95
42771;BME280;28426;42.872;25.314;2023-02-18T08:29:27;97382.06;;;4.50;68.99
42771;BME280;28426;42.872;25.314;2023-02-18T08:31:58;97355.09;;;4.26;69.30
42771;BME280;28426;42.872;25.314;2023-02-18T08:34:29;97369.00;;;4.48;71.26
42771;BME280;28426;42.872;25.314;2023-02-18T08:37:01;97357.72;;;4.56;69.04
42771;BME280;28426;42.872;25.314;2023-02-18T08:39:33;97377.19;;;4.65;67.73
42771;BME280;28426;42.872;25.314;2023-02-18T08:42:08;97368.44;;;4.54;69.17
42771;BME280;28426;42.872;25.314;2023-02-18T08:44:39;97371.22;;;4.63;70.79
42771;BME280;28426;42.872;25.314;2023-02-18T08:47:10;97362.41;;;4.82;69.10
42771;BME280;28426;42.872;25.314;2023-02-18T08:50:00;97369.22;;;4.94;68.62
42771;BME280;28426;42.872;25.314;2023-02-18T08:52:31;97367.25;;;5.06;70.61
42771;BME280;28426;42.872;25.314;2023-02-18T08:55:02;97353.25;;;5.24;70.22
42771;BME280;28426;42.872;25.314;2023-02-18T08:57:36;97368.56;;;5.58;69.80
42771;BME280;28426;42.872;25.314;2023-02-18T09:00:08;97359.19;;;5.92;68.64
42771;BME280;28426;42.872;25.314;2023-02-18T09:02:41;97352.66;;;6.14;65.79
42771;BME280;28426;42.872;25.314;2023-02-18T09:05:14;97349.34;;;6.31;65.52
42771;BME280;28426;42.872;25.314;2023-02-18T09:07:44;97345.69;;;6.32;64.79
42771;BME280;28426;42.872;25.314;2023-02-18T09:10:15;97355.59;;;6.48;67.12
42771;BME280;28426;42.872;25.314;2023-02-18T09:12:48;97355.63;;;6.74;63.77
42771;BME280;28426;42.872;25.314;2023-02-18T09:15:19;97353.69;;;7.03;64.53
42771;BME280;28426;42.872;25.314;2023-02-18T09:17:50;97345.88;;;7.28;63.43
42771;BME280;28426;42.872;25.314;2023-02-18T09:20:20;97344.06;;;7.37;61.06
42771;BME280;28426;42.872;25.314;2023-02-18T09:22:51;97342.56;;;7.34;60.76
42771;BME280;28426;42.872;25.314;2023-02-18T09:25:22;97345.97;;;7.53;62.60
42771;BME280;28426;42.872;25.314;2023-02-18T09:27:55;97350.34;;;7.70;61.77
42771;BME280;28426;42.872;25.314;2023-02-18T09:30:26;97352.06;;;7.88;63.05
42771;BME280;28426;42.872;25.314;2023-02-18T09:32:57;97344.13;;;7.96;58.74
42771;BME280;28426;42.872;25.314;2023-02-18T09:35:27;97345.78;;;7.97;58.48
42771;BME280;28426;42.872;25.314;2023-02-18T09:37:58;97343.09;;;7.89;61.75
42771;BME280;28426;42.872;25.314;2023-02-18T09:40:31;97347.00;;;8.11;63.37
42771;BME280;28426;42.872;25.314;2023-02-18T09:43:06;97340.88;;;8.44;59.19
42771;BME280;28426;42.872;25.314;2023-02-18T09:45:40;97338.25;;;8.86;60.07
42771;BME280;28426;42.872;25.314;2023-02-18T09:48:11;97339.63;;;9.30;53.26
42771;BME280;28426;42.872;25.314;2023-02-18T09:50:46;97333.53;;;9.61;50.41
42771;BME280;28426;42.872;25.314;2023-02-18T09:53:18;97336.88;;;9.95;50.14
42771;BME280;28426;42.872;25.314;2023-02-18T09:55:50;97340.09;;;10.14;49.28
42771;BME280;28426;42.872;25.314;2023-02-18T09:58:26;97338.09;;;10.16;47.73
42771;BME280;28426;42.872;25.314;2023-02-18T10:01:04;97341.75;;;10.38;49.27
42771;BME280;28426;42.872;25.314;2023-02-18T10:03:37;97342.38;;;10.49;49.26
42771;BME280;28426;42.872;25.314;2023-02-18T10:06:11;97336.09;;;10.65;51.10
42771;BME280;28426;42.872;25.314;2023-02-18T10:08:47;97343.88;;;10.90;47.81
42771;BME280;28426;42.872;25.314;2023-02-18T10:11:23;97345.13;;;11.17;49.62
42771;BME280;28426;42.872;25.314;2023-02-18T10:14:01;97342.34;;;11.41;46.97
42771;BME280;28426;42.872;25.314;2023-02-18T10:16:32;97344.84;;;11.42;45.65
42771;BME280;28426;42.872;25.314;2023-02-18T10:19:20;97342.81;;;11.59;47.40
42771;BME280;28426;42.872;25.314;2023-02-18T10:21:52;97342.25;;;11.79;45.55
42771;BME280;28426;42.872;25.314;2023-02-18T10:24:29;97342.59;;;12.06;47.75
42771;BME280;28426;42.872;25.314;2023-02-18T10:27:04;97332.09;;;12.26;43.21
42771;BME280;28426;42.872;25.314;2023-02-18T10:29:37;97327.25;;;12.37;44.43
42771;BME280;28426;42.872;25.314;2023-02-18T10:32:24;97328.66;;;12.54;43.11
42771;BME280;28426;42.872;25.314;2023-02-18T10:35:00;97331.41;;;12.61;43.70
42771;BME280;28426;42.872;25.314;2023-02-18T10:37:48;97329.22;;;12.72;42.23
42771;BME280;28426;42.872;25.314;2023-02-18T10:40:27;97322.09;;;12.57;42.38
42771;BME280;28426;42.872;25.314;2023-02-18T10:43:05;97327.88;;;12.61;42.44
42771;BME280;28426;42.872;25.314;2023-02-18T10:45:48;97312.91;;;12.45;42.64
42771;BME280;28426;42.872;25.314;2023-02-18T10:48:40;97304.63;;;12.39;43.96
42771;BME280;28426;42.872;25.314;2023-02-18T10:51:16;97312.91;;;12.45;42.04
42771;BME280;28426;42.872;25.314;2023-02-18T10:53:50;97304.56;;;12.54;43.33
42771;BME280;28426;42.872;25.314;2023-02-18T10:56:38;97290.81;;;12.58;41.06
42771;BME280;28426;42.872;25.314;2023-02-18T10:59:14;97298.66;;;12.59;42.49
42771;BME280;28426;42.872;25.314;2023-02-18T11:01:56;97295.81;;;12.67;41.11
42771;BME280;28426;42.872;25.314;2023-02-18T11:04:36;97298.00;;;12.57;41.23
42771;BME280;28426;42.872;25.314;2023-02-18T11:07:12;97286.72;;;12.62;42.78
42771;BME280;28426;42.872;25.314;2023-02-18T11:09:47;97273.53;;;12.60;41.19
42771;BME280;28426;42.872;25.314;2023-02-18T11:12:22;97264.09;;;12.64;41.51
42771;BME280;28426;42.872;25.314;2023-02-18T11:15:06;97279.13;;;12.65;41.13
42771;BME280;28426;42.872;25.314;2023-02-18T11:17:49;97267.50;;;12.29;40.91
42771;BME280;28426;42.872;25.314;2023-02-18T11:20:21;97300.69;;;12.35;42.54
42771;BME280;28426;42.872;25.314;2023-02-18T11:22:57;97289.34;;;12.33;41.68
42771;BME280;28426;42.872;25.314;2023-02-18T11:25:30;97292.28;;;12.38;42.48
42771;BME280;28426;42.872;25.314;2023-02-18T11:28:03;97279.94;;;12.37;41.25
42771;BME280;28426;42.872;25.314;2023-02-18T11:30:36;97278.78;;;12.25;41.74
42771;BME280;28426;42.872;25.314;2023-02-18T11:33:25;97273.25;;;12.26;41.84
42771;BME280;28426;42.872;25.314;2023-02-18T11:36:04;97273.56;;;12.16;41.80
42771;BME280;28426;42.872;25.314;2023-02-18T11:38:44;97288.06;;;12.07;42.03
42771;BME280;28426;42.872;25.314;2023-02-18T11:41:18;97277.00;;;12.10;42.51
42771;BME280;28426;42.872;25.314;2023-02-18T11:43:51;97280.13;;;12.14;43.20
42771;BME280;28426;42.872;25.314;2023-02-18T11:46:23;97273.19;;;12.20;42.19
42771;BME280;28426;42.872;25.314;2023-02-18T11:49:10;97268.88;;;12.03;42.04
42771;BME280;28426;42.872;25.314;2023-02-18T11:51:50;97267.31;;;12.09;43.56
42771;BME280;28426;42.872;25.314;2023-02-18T11:54:24;97267.31;;;12.09;42.04
42771;BME280;28426;42.872;25.314;2023-02-18T11:56:58;97258.47;;;11.94;42.42
42771;BME280;28426;42.872;25.314;2023-02-18T11:59:32;97269.13;;;11.87;43.14
42771;BME280;28426;42.872;25.314;2023-02-18T12:02:25;97273.50;;;11.95;42.21
42771;BME280;28426;42.872;25.314;2023-02-18T12:05:03;97278.41;;;12.06;42.63
42771;BME280;28426;42.872;25.314;2023-02-18T12:07:41;97277.63;;;12.12;41.51
42771;BME280;28426;42.872;25.314;2023-02-18T12:10:14;97277.47;;;11.99;41.96
42771;BME280;28426;42.872;25.314;2023-02-18T12:12:48;97272.88;;;11.93;42.86
42771;BME280;28426;42.872;25.314;2023-02-18T12:15:25;97263.06;;;12.00;41.33
42771;BME280;28426;42.872;25.314;2023-02-18T12:21:20;97261.13;;;12.09;42.23
42771;BME280;28426;42.872;25.314;2023-02-18T12:24:03;97254.53;;;11.89;42.33
42771;BME280;28426;42.872;25.314;2023-02-18T12:26:43;97248.56;;;11.87;43.00
42771;BME280;28426;42.872;25.314;2023-02-18T12:29:36;97264.09;;;11.99;42.00
42771;BME280;28426;42.872;25.314;2023-02-18T12:32:22;97270.47;;;11.98;43.00
42771;BME280;28426;42.872;25.314;2023-02-18T12:35:08;97262.34;;;12.06;41.96
42771;BME280;28426;42.872;25.314;2023-02-18T12:38:01;97241.81;;;11.92;41.89
42771;BME280;28426;42.872;25.314;2023-02-18T12:40:45;97253.72;;;12.11;42.06
42771;BME280;28426;42.872;25.314;2023-02-18T12:43:28;97259.84;;;12.04;42.26
42771;BME280;28426;42.872;25.314;2023-02-18T12:46:26;97249.66;;;12.15;42.98
42771;BME280;28426;42.872;25.314;2023-02-18T12:49:21;97240.41;;;12.18;41.74
42771;BME280;28426;42.872;25.314;2023-02-18T12:52:03;97233.38;;;11.95;42.11
42771;BME280;28426;42.872;25.314;2023-02-18T12:54:51;97237.59;;;12.04;43.35
42771;BME280;28426;42.872;25.314;2023-02-18T12:57:37;97244.72;;;12.12;41.85
42771;BME280;28426;42.872;25.314;2023-02-18T13:00:29;97232.09;;;12.27;42.14
42771;BME280;28426;42.872;25.314;2023-02-18T13:03:26;97223.44;;;12.25;41.68
42771;BME280;28426;42.872;25.314;2023-02-18T13:06:08;97218.50;;;12.29;42.55
42771;BME280;28426;42.872;25.314;2023-02-18T13:08:51;97221.44;;;12.34;41.52
42771;BME280;28426;42.872;25.314;2023-02-18T13:11:35;97227.63;;;12.35;41.76
42771;BME280;28426;42.872;25.314;2023-02-18T13:14:10;97230.47;;;12.55;41.18
42771;BME280;28426;42.872;25.314;2023-02-18T13:16:44;97224.38;;;12.68;41.06
42771;BME280;28426;42.872;25.314;2023-02-18T13:19:20;97217.25;;;12.82;40.72
42771;BME280;28426;42.872;25.314;2023-02-18T13:21:51;97224.63;;;12.80;40.51
42771;BME280;28426;42.872;25.314;2023-02-18T13:24:28;97211.41;;;12.72;40.29
42771;BME280;28426;42.872;25.314;2023-02-18T13:27:11;97207.34;;;12.82;40.44
42771;BME280;28426;42.872;25.314;2023-02-18T13:29:47;97208.66;;;12.93;41.17
42771;BME280;28426;42.872;25.314;2023-02-18T13:32:25;97188.47;;;12.98;39.86
42771;BME280;28426;42.872;25.314;2023-02-18T13:35:00;97200.47;;;12.66;39.83
42771;BME280;28426;42.872;25.314;2023-02-18T13:37:39;97195.34;;;12.14;40.88
42771;BME280;28426;42.872;25.314;2023-02-18T13:40:16;97195.13;;;11.72;42.44
42771;BME280;28426;42.872;25.314;2023-02-18T13:42:53;97195.56;;;11.54;43.11